sensor_id;sensor_type;location;lat;lon;timestamp;temperature;humidity
49861;DHT22;35761;48.826;9.238;2023-04-10T00:00:47;8.50;29.60
49861;DHT22;35761;48.826;9.238;2023-04-10T00:03:24;8.60;29.60
49861;DHT22;35761;48.826;9.238;2023-04-10T00:05:57;8.50;29.70
49861;DHT22;35761;48.826;9.238;2023-04-10T00:08:28;8.60;29.80
49861;DHT22;35761;48.826;9.238;2023-04-10T00:10:58;8.60;29.70
49861;DHT22;35761;48.826;9.238;2023-04-10T00:13:29;8.50;29.80
49861;DHT22;35761;48.826;9.238;2023-04-10T00:15:59;8.40;30.00
49861;DHT22;35761;48.826;9.238;2023-04-10T00:18:30;8.40;29.90
49861;DHT22;35761;48.826;9.238;2023-04-10T00:21:05;8.40;30.20
49861;DHT22;35761;48.826;9.238;2023-04-10T00:23:36;8.30;30.30
49861;DHT22;35761;48.826;9.238;2023-04-10T00:26:07;8.20;30.30
49861;DHT22;35761;48.826;9.238;2023-04-10T00:28:38;8.30;30.60
49861;DHT22;35761;48.826;9.238;2023-04-10T00:31:08;8.20;30.60
49861;DHT22;35761;48.826;9.238;2023-04-10T00:33:38;8.10;30.80
49861;DHT22;35761;48.826;9.238;2023-04-10T00:36:11;8.10;30.90
49861;DHT22;35761;48.826;9.238;2023-04-10T00:38:42;8.10;31.40
49861;DHT22;35761;48.826;9.238;2023-04-10T00:41:13;8.10;31.50
49861;DHT22;35761;48.826;9.238;2023-04-10T00:43:44;8.00;31.50
49861;DHT22;35761;48.826;9.238;2023-04-10T00:46:14;7.90;31.70
49861;DHT22;35761;48.826;9.238;2023-04-10T00:48:45;7.80;31.70
49861;DHT22;35761;48.826;9.238;2023-04-10T00:51:18;7.70;31.70
49861;DHT22;35761;48.826;9.238;2023-04-10T00:53:49;7.60;31.90
49861;DHT22;35761;48.826;9.238;2023-04-10T00:56:22;7.60;32.30
49861;DHT22;35761;48.826;9.238;2023-04-10T00:58:53;7.60;32.40
49861;DHT22;35761;48.826;9.238;2023-04-10T01:01:23;7.50;32.60
49861;DHT22;35761;48.826;9.238;2023-04-10T01:03:55;7.40;32.80
49861;DHT22;35761;48.826;9.238;2023-04-10T01:06:39;7.40;33.00
49861;DHT22;35761;48.826;9.238;2023-04-10T01:09:31;7.30;33.10
49861;DHT22;35761;48.826;9.238;2023-04-10T01:12:14;7.40;33.20
49861;DHT22;35761;48.826;9.238;2023-04-10T01:15:01;7.30;33.00
49861;DHT22;35761;48.826;9.238;2023-04-10T01:17:40;7.40;33.00
49861;DHT22;35761;48.826;9.238;2023-04-10T01:20:17;7.30;32.90
49861;DHT22;35761;48.826;9.238;2023-04-10T01:23:18;7.30;33.20
49861;DHT22;35761;48.826;9.238;2023-04-10T01:25:57;7.30;33.30
49861;DHT22;35761;48.826;9.238;2023-04-10T01:28:51;7.20;33.30
49861;DHT22;35761;48.826;9.238;2023-04-10T01:31:28;7.30;33.50
49861;DHT22;35761;48.826;9.238;2023-04-10T01:34:06;7.20;33.40
49861;DHT22;35761;48.826;9.238;2023-04-10T01:36:45;7.20;33.50
49861;DHT22;35761;48.826;9.238;2023-04-10T01:39:20;7.20;33.60
49861;DHT22;35761;48.826;9.238;2023-04-10T01:41:53;7.20;33.70
49861;DHT22;35761;48.826;9.238;2023-04-10T01:44:41;7.30;33.90
49861;DHT22;35761;48.826;9.238;2023-04-10T01:47:14;7.20;33.60
49861;DHT22;35761;48.826;9.238;2023-04-10T01:49:46;7.10;33.70
49861;DHT22;35761;48.826;9.238;2023-04-10T01:52:18;7.00;34.00
49861;DHT22;35761;48.826;9.238;2023-04-10T01:55:00;7.00;34.20
49861;DHT22;35761;48.826;9.238;2023-04-10T01:57:38;6.90;34.60
49861;DHT22;35761;48.826;9.238;2023-04-10T02:00:12;6.90;34.90
49861;DHT22;35761;48.826;9.238;2023-04-10T02:02:43;6.90;34.80
49861;DHT22;35761;48.826;9.238;2023-04-10T02:05:14;6.80;34.80
49861;DHT22;35761;48.826;9.238;2023-04-10T02:07:53;6.90;35.10
49861;DHT22;35761;48.826;9.238;2023-04-10T02:10:34;6.90;35.10
49861;DHT22;35761;48.826;9.238;2023-04-10T02:13:10;6.90;35.00
49861;DHT22;35761;48.826;9.238;2023-04-10T02:15:46;6.80;34.80
49861;DHT22;35761;48.826;9.238;2023-04-10T02:18:20;6.80;34.80
49861;DHT22;35761;48.826;9.238;2023-04-10T02:20:53;6.80;34.80
49861;DHT22;35761;48.826;9.238;2023-04-10T02:23:23;6.80;34.90
49861;DHT22;35761;48.826;9.238;2023-04-10T02:25:54;6.80;35.00
49861;DHT22;35761;48.826;9.238;2023-04-10T02:28:25;6.70;35.00
49861;DHT22;35761;48.826;9.238;2023-04-10T02:30:59;6.70;35.20
49861;DHT22;35761;48.826;9.238;2023-04-10T02:33:30;6.70;35.20
49861;DHT22;35761;48.826;9.238;2023-04-10T02:36:00;6.60;35.30
49861;DHT22;35761;48.826;9.238;2023-04-10T02:38:31;6.60;35.30
49861;DHT22;35761;48.826;9.238;2023-04-10T02:41:01;6.60;35.40
49861;DHT22;35761;48.826;9.238;2023-04-10T02:43:32;6.60;36.00
49861;DHT22;35761;48.826;9.238;2023-04-10T02:46:05;6.60;35.40
49861;DHT22;35761;48.826;9.238;2023-04-10T02:48:38;6.60;35.50
49861;DHT22;35761;48.826;9.238;2023-04-10T02:51:09;6.60;35.60
49861;DHT22;35761;48.826;9.238;2023-04-10T02:53:39;6.60;35.60
49861;DHT22;35761;48.826;9.238;2023-04-10T02:56:19;6.60;35.50
49861;DHT22;35761;48.826;9.238;2023-04-10T02:58:49;6.50;35.50
49861;DHT22;35761;48.826;9.238;2023-04-10T03:01:23;6.50;35.70
49861;DHT22;35761;48.826;9.238;2023-04-10T03:03:55;6.40;35.70
49861;DHT22;35761;48.826;9.238;2023-04-10T03:06:33;6.40;35.80
49861;DHT22;35761;48.826;9.238;2023-04-10T03:09:03;6.40;35.80
49861;DHT22;35761;48.826;9.238;2023-04-10T03:11:34;6.40;35.80
49861;DHT22;35761;48.826;9.238;2023-04-10T03:14:05;6.40;35.90
49861;DHT22;35761;48.826;9.238;2023-04-10T03:16:38;6.40;35.90
49861;DHT22;35761;48.826;9.238;2023-04-10T03:19:09;6.40;36.10
49861;DHT22;35761;48.826;9.238;2023-04-10T03:21:39;6.20;36.10
49861;DHT22;35761;48.826;9.238;2023-04-10T03:24:10;6.10;36.50
49861;DHT22;35761;48.826;9.238;2023-04-10T03:26:42;6.10;36.70
49861;DHT22;35761;48.826;9.238;2023-04-10T03:29:12;6.10;36.70
49861;DHT22;35761;48.826;9.238;2023-04-10T03:31:47;6.10;36.80
49861;DHT22;35761;48.826;9.238;2023-04-10T03:34:18;6.00;36.80
49861;DHT22;35761;48.826;9.238;2023-04-10T03:36:48;6.00;36.90
49861;DHT22;35761;48.826;9.238;2023-04-10T03:39:19;6.00;37.10
49861;DHT22;35761;48.826;9.238;2023-04-10T03:41:49;6.00;37.30
49861;DHT22;35761;48.826;9.238;2023-04-10T03:44:23;5.90;37.50
49861;DHT22;35761;48.826;9.238;2023-04-10T03:46:57;5.90;37.60
49861;DHT22;35761;48.826;9.238;2023-04-10T03:49:27;5.90;38.00
49861;DHT22;35761;48.826;9.238;2023-04-10T03:52:03;5.90;38.00
49861;DHT22;35761;48.826;9.238;2023-04-10T03:54:34;5.90;38.20
49861;DHT22;35761;48.826;9.238;2023-04-10T03:57:06;5.90;38.50
49861;DHT22;35761;48.826;9.238;2023-04-10T03:59:37;5.90;38.80
49861;DHT22;35761;48.826;9.238;2023-04-10T04:02:13;5.90;39.00
49861;DHT22;35761;48.826;9.238;2023-04-10T04:04:44;5.90;39.20
49861;DHT22;35761;48.826;9.238;2023-04-10T04:07:35;5.80;39.20
49861;DHT22;35761;48.826;9.238;2023-04-10T04:10:34;5.80;39.20
49861;DHT22;35761;48.826;9.238;2023-04-10T04:13:31;5.80;40.10
49861;DHT22;35761;48.826;9.238;2023-04-10T04:16:09;5.80;39.70
49861;DHT22;35761;48.826;9.238;2023-04-10T04:18:49;5.80;39.80
49861;DHT22;35761;48.826;9.238;2023-04-10T04:21:27;5.80;39.60
49861;DHT22;35761;48.826;9.238;2023-04-10T04:24:11;5.70;39.60
49861;DHT22;35761;48.826;9.238;2023-04-10T04:27:04;5.80;39.50
49861;DHT22;35761;48.826;9.238;2023-04-10T04:29:55;5.80;39.50
49861;DHT22;35761;48.826;9.238;2023-04-10T04:32:42;5.70;39.70
49861;DHT22;35761;48.826;9.238;2023-04-10T04:35:26;5.70;39.60
49861;DHT22;35761;48.826;9.238;2023-04-10T04:38:13;5.70;39.30
49861;DHT22;35761;48.826;9.238;2023-04-10T04:41:00;5.60;39.20
49861;DHT22;35761;48.826;9.238;2023-04-10T04:43:57;5.60;39.80
49861;DHT22;35761;48.826;9.238;2023-04-10T04:47:02;5.60;39.30
49861;DHT22;35761;48.826;9.238;2023-04-10T04:49:59;5.60;39.30
49861;DHT22;35761;48.826;9.238;2023-04-10T04:53:04;5.60;39.60
49861;DHT22;35761;48.826;9.238;2023-04-10T04:55:54;5.50;39.40
49861;DHT22;35761;48.826;9.238;2023-04-10T04:58:46;5.50;39.60
49861;DHT22;35761;48.826;9.238;2023-04-10T05:01:39;5.50;39.80
49861;DHT22;35761;48.826;9.238;2023-04-10T05:04:39;5.50;39.60
49861;DHT22;35761;48.826;9.238;2023-04-10T05:07:22;5.50;39.50
49861;DHT22;35761;48.826;9.238;2023-04-10T05:09:58;5.50;39.20
49861;DHT22;35761;48.826;9.238;2023-04-10T05:12:35;5.50;39.30
49861;DHT22;35761;48.826;9.238;2023-04-10T05:15:26;5.50;39.40
49861;DHT22;35761;48.826;9.238;2023-04-10T05:18:33;5.50;39.50
49861;DHT22;35761;48.826;9.238;2023-04-10T05:21:06;5.50;39.50
49861;DHT22;35761;48.826;9.238;2023-04-10T05:24:03;5.50;39.40
49861;DHT22;35761;48.826;9.238;2023-04-10T05:26:42;5.50;39.50
49861;DHT22;35761;48.826;9.238;2023-04-10T05:29:39;5.50;39.60
49861;DHT22;35761;48.826;9.238;2023-04-10T05:32:30;5.50;39.70
49861;DHT22;35761;48.826;9.238;2023-04-10T05:35:19;5.50;39.70
49861;DHT22;35761;48.826;9.238;2023-04-10T05:37:57;5.40;39.80
49861;DHT22;35761;48.826;9.238;2023-04-10T05:40:52;5.40;39.80
49861;DHT22;35761;48.826;9.238;2023-04-10T05:43:40;5.50;39.90
49861;DHT22;35761;48.826;9.238;2023-04-10T05:46:20;5.50;39.80
49861;DHT22;35761;48.826;9.238;2023-04-10T05:49:26;5.40;39.80
49861;DHT22;35761;48.826;9.238;2023-04-10T05:52:10;5.50;40.10
49861;DHT22;35761;48.826;9.238;2023-04-10T05:54:50;5.40;40.20
49861;DHT22;35761;48.826;9.238;2023-04-10T05:57:33;5.50;40.30
49861;DHT22;35761;48.826;9.238;2023-04-10T06:00:29;5.50;40.40
49861;DHT22;35761;48.826;9.238;2023-04-10T06:03:25;5.50;39.80
49861;DHT22;35761;48.826;9.238;2023-04-10T06:06:00;5.50;40.20
49861;DHT22;35761;48.826;9.238;2023-04-10T06:08:31;5.60;40.40
49861;DHT22;35761;48.826;9.238;2023-04-10T06:11:03;5.60;40.20
49861;DHT22;35761;48.826;9.238;2023-04-10T06:13:34;5.60;40.50
49861;DHT22;35761;48.826;9.238;2023-04-10T06:16:08;5.60;41.00
49861;DHT22;35761;48.826;9.238;2023-04-10T06:18:42;5.60;40.70
49861;DHT22;35761;48.826;9.238;2023-04-10T06:21:14;5.60;40.70
49861;DHT22;35761;48.826;9.238;2023-04-10T06:23:45;5.60;41.00
49861;DHT22;35761;48.826;9.238;2023-04-10T06:26:17;5.60;40.30
49861;DHT22;35761;48.826;9.238;2023-04-10T06:28:48;5.70;41.00
49861;DHT22;35761;48.826;9.238;2023-04-10T06:31:23;5.70;40.90
49861;DHT22;35761;48.826;9.238;2023-04-10T06:33:54;5.70;40.70
49861;DHT22;35761;48.826;9.238;2023-04-10T06:36:25;5.60;41.10
49861;DHT22;35761;48.826;9.238;2023-04-10T06:39:01;5.70;40.80
49861;DHT22;35761;48.826;9.238;2023-04-10T06:41:33;5.80;40.80
49861;DHT22;35761;48.826;9.238;2023-04-10T06:44:17;5.80;40.50
49861;DHT22;35761;48.826;9.238;2023-04-10T06:46:52;5.80;40.50
49861;DHT22;35761;48.826;9.238;2023-04-10T06:49:23;5.80;40.80
49861;DHT22;35761;48.826;9.238;2023-04-10T06:51:53;5.80;41.70
49861;DHT22;35761;48.826;9.238;2023-04-10T06:54:24;5.80;41.80
49861;DHT22;35761;48.826;9.238;2023-04-10T06:56:55;5.90;42.20
49861;DHT22;35761;48.826;9.238;2023-04-10T06:59:25;5.90;42.60
49861;DHT22;35761;48.826;9.238;2023-04-10T07:01:58;6.00;41.20
49861;DHT22;35761;48.826;9.238;2023-04-10T07:04:28;6.00;40.50
49861;DHT22;35761;48.826;9.238;2023-04-10T07:06:59;6.00;40.40
49861;DHT22;35761;48.826;9.238;2023-04-10T07:09:30;6.10;40.20
49861;DHT22;35761;48.826;9.238;2023-04-10T07:12:00;6.10;39.30
49861;DHT22;35761;48.826;9.238;2023-04-10T07:14:32;6.10;38.80
49861;DHT22;35761;48.826;9.238;2023-04-10T07:17:06;6.20;39.10
49861;DHT22;35761;48.826;9.238;2023-04-10T07:19:36;6.30;38.80
49861;DHT22;35761;48.826;9.238;2023-04-10T07:22:07;6.30;39.80
49861;DHT22;35761;48.826;9.238;2023-04-10T07:24:38;6.40;39.50
49861;DHT22;35761;48.826;9.238;2023-04-10T07:27:08;6.40;39.00
49861;DHT22;35761;48.826;9.238;2023-04-10T07:29:39;6.50;39.60
49861;DHT22;35761;48.826;9.238;2023-04-10T07:32:12;6.50;39.90
49861;DHT22;35761;48.826;9.238;2023-04-10T07:34:42;6.60;40.60
49861;DHT22;35761;48.826;9.238;2023-04-10T07:37:13;6.60;39.50
49861;DHT22;35761;48.826;9.238;2023-04-10T07:39:44;6.70;39.50
49861;DHT22;35761;48.826;9.238;2023-04-10T07:42:14;6.70;39.60
49861;DHT22;35761;48.826;9.238;2023-04-10T07:44:45;6.80;39.90
49861;DHT22;35761;48.826;9.238;2023-04-10T07:47:18;6.80;39.50
49861;DHT22;35761;48.826;9.238;2023-04-10T07:49:48;6.90;39.30
49861;DHT22;35761;48.826;9.238;2023-04-10T07:52:19;7.00;38.70
49861;DHT22;35761;48.826;9.238;2023-04-10T07:54:49;7.00;38.80
49861;DHT22;35761;48.826;9.238;2023-04-10T07:57:20;7.20;39.20
49861;DHT22;35761;48.826;9.238;2023-04-10T07:59:50;7.20;37.60
49861;DHT22;35761;48.826;9.238;2023-04-10T08:02:24;7.30;37.10
49861;DHT22;35761;48.826;9.238;2023-04-10T08:04:54;7.40;37.60
49861;DHT22;35761;48.826;9.238;2023-04-10T08:07:25;7.50;36.80
49861;DHT22;35761;48.826;9.238;2023-04-10T08:09:56;7.60;36.80
49861;DHT22;35761;48.826;9.238;2023-04-10T08:12:26;7.60;37.00
49861;DHT22;35761;48.826;9.238;2023-04-10T08:14:58;7.70;36.50
49861;DHT22;35761;48.826;9.238;2023-04-10T08:17:31;7.80;35.10
49861;DHT22;35761;48.826;9.238;2023-04-10T08:20:02;7.90;35.10
49861;DHT22;35761;48.826;9.238;2023-04-10T08:22:32;8.10;33.60
49861;DHT22;35761;48.826;9.238;2023-04-10T08:25:04;8.20;32.50
49861;DHT22;35761;48.826;9.238;2023-04-10T08:27:35;8.20;32.80
49861;DHT22;35761;48.826;9.238;2023-04-10T08:30:07;8.30;32.60
49861;DHT22;35761;48.826;9.238;2023-04-10T08:32:40;8.40;33.30
49861;DHT22;35761;48.826;9.238;2023-04-10T08:35:11;8.50;33.60
49861;DHT22;35761;48.826;9.238;2023-04-10T08:37:41;8.60;32.30
49861;DHT22;35761;48.826;9.238;2023-04-10T08:40:19;8.80;31.70
49861;DHT22;35761;48.826;9.238;2023-04-10T08:42:50;8.90;31.10
49861;DHT22;35761;48.826;9.238;2023-04-10T08:45:21;9.00;29.10
49861;DHT22;35761;48.826;9.238;2023-04-10T08:47:57;9.10;28.50
49861;DHT22;35761;48.826;9.238;2023-04-10T08:50:33;9.30;27.00
49861;DHT22;35761;48.826;9.238;2023-04-10T08:53:11;9.40;27.20
49861;DHT22;35761;48.826;9.238;2023-04-10T08:55:43;9.60;25.80
49861;DHT22;35761;48.826;9.238;2023-04-10T08:58:15;9.80;24.50
49861;DHT22;35761;48.826;9.238;2023-04-10T09:00:45;9.90;25.20
49861;DHT22;35761;48.826;9.238;2023-04-10T09:03:18;9.90;24.60
49861;DHT22;35761;48.826;9.238;2023-04-10T09:05:49;9.90;25.30
49861;DHT22;35761;48.826;9.238;2023-04-10T09:08:19;10.10;21.70
49861;DHT22;35761;48.826;9.238;2023-04-10T09:10:49;10.30;21.90
49861;DHT22;35761;48.826;9.238;2023-04-10T09:13:34;10.40;21.60
49861;DHT22;35761;48.826;9.238;2023-04-10T09:16:08;10.50;21.80
49861;DHT22;35761;48.826;9.238;2023-04-10T09:18:48;10.60;20.40
49861;DHT22;35761;48.826;9.238;2023-04-10T09:21:20;10.70;20.80
49861;DHT22;35761;48.826;9.238;2023-04-10T09:23:59;10.80;22.10
49861;DHT22;35761;48.826;9.238;2023-04-10T09:26:31;10.90;20.30
49861;DHT22;35761;48.826;9.238;2023-04-10T09:29:04;10.90;19.80
49861;DHT22;35761;48.826;9.238;2023-04-10T09:31:38;11.10;19.90
49861;DHT22;35761;48.826;9.238;2023-04-10T09:34:16;11.20;20.40
49861;DHT22;35761;48.826;9.238;2023-04-10T09:36:53;11.20;20.30
49861;DHT22;35761;48.826;9.238;2023-04-10T09:39:33;11.20;19.70
49861;DHT22;35761;48.826;9.238;2023-04-10T09:42:07;11.40;20.20
49861;DHT22;35761;48.826;9.238;2023-04-10T09:44:40;11.40;20.70
49861;DHT22;35761;48.826;9.238;2023-04-10T09:47:18;11.50;21.30
49861;DHT22;35761;48.826;9.238;2023-04-10T09:49:53;11.60;18.50
49861;DHT22;35761;48.826;9.238;2023-04-10T09:52:28;11.70;17.90
49861;DHT22;35761;48.826;9.238;2023-04-10T09:55:00;11.60;18.00
49861;DHT22;35761;48.826;9.238;2023-04-10T09:57:34;11.80;18.90
49861;DHT22;35761;48.826;9.238;2023-04-10T10:00:06;11.90;19.20
49861;DHT22;35761;48.826;9.238;2023-04-10T10:02:39;12.00;18.50
49861;DHT22;35761;48.826;9.238;2023-04-10T10:05:12;12.10;19.40
49861;DHT22;35761;48.826;9.238;2023-04-10T10:07:44;12.20;18.90
49861;DHT22;35761;48.826;9.238;2023-04-10T10:10:15;12.30;17.10
49861;DHT22;35761;48.826;9.238;2023-04-10T10:12:49;12.30;17.20
49861;DHT22;35761;48.826;9.238;2023-04-10T10:15:25;12.40;18.60
49861;DHT22;35761;48.826;9.238;2023-04-10T10:18:03;12.50;17.60
49861;DHT22;35761;48.826;9.238;2023-04-10T10:20:42;12.60;17.60
49861;DHT22;35761;48.826;9.238;2023-04-10T10:23:14;12.60;18.70
49861;DHT22;35761;48.826;9.238;2023-04-10T10:25:48;12.70;18.30
49861;DHT22;35761;48.826;9.238;2023-04-10T10:28:19;12.80;19.70
49861;DHT22;35761;48.826;9.238;2023-04-10T10:30:51;12.90;17.20
49861;DHT22;35761;48.826;9.238;2023-04-10T10:33:24;13.10;16.40
49861;DHT22;35761;48.826;9.238;2023-04-10T10:35:59;13.10;16.00
49861;DHT22;35761;48.826;9.238;2023-04-10T10:38:30;13.10;17.60
49861;DHT22;35761;48.826;9.238;2023-04-10T10:41:09;13.30;16.50
49861;DHT22;35761;48.826;9.238;2023-04-10T10:43:51;13.30;16.20
49861;DHT22;35761;48.826;9.238;2023-04-10T10:46:33;13.40;16.50
49861;DHT22;35761;48.826;9.238;2023-04-10T10:49:06;13.40;16.50
49861;DHT22;35761;48.826;9.238;2023-04-10T10:51:46;13.50;16.20
49861;DHT22;35761;48.826;9.238;2023-04-10T10:54:27;13.80;15.90
49861;DHT22;35761;48.826;9.238;2023-04-10T10:56:58;13.90;15.20
49861;DHT22;35761;48.826;9.238;2023-04-10T10:59:55;14.10;15.40
49861;DHT22;35761;48.826;9.238;2023-04-10T11:02:26;14.10;14.80
49861;DHT22;35761;48.826;9.238;2023-04-10T11:04:56;14.20;15.30
49861;DHT22;35761;48.826;9.238;2023-04-10T11:11:00;14.20;14.80
49861;DHT22;35761;48.826;9.238;2023-04-10T11:13:32;14.30;14.40
49861;DHT22;35761;48.826;9.238;2023-04-10T11:16:05;14.40;14.10
49861;DHT22;35761;48.826;9.238;2023-04-10T11:19:02;14.40;15.80
49861;DHT22;35761;48.826;9.238;2023-04-10T11:22:05;14.50;15.00
49861;DHT22;35761;48.826;9.238;2023-04-10T11:24:57;14.60;15.10
49861;DHT22;35761;48.826;9.238;2023-04-10T11:27:42;14.60;14.80
49861;DHT22;35761;48.826;9.238;2023-04-10T11:30:32;14.60;15.70
49861;DHT22;35761;48.826;9.238;2023-04-10T11:33:04;14.90;13.30
49861;DHT22;35761;48.826;9.238;2023-04-10T11:35:35;14.90;12.30
49861;DHT22;35761;48.826;9.238;2023-04-10T11:38:11;14.90;13.00
49861;DHT22;35761;48.826;9.238;2023-04-10T11:40:59;14.80;15.50
49861;DHT22;35761;48.826;9.238;2023-04-10T11:43:33;14.90;14.30
49861;DHT22;35761;48.826;9.238;2023-04-10T11:46:05;14.90;12.60
49861;DHT22;35761;48.826;9.238;2023-04-10T11:48:36;15.10;12.70
49861;DHT22;35761;48.826;9.238;2023-04-10T11:51:11;15.20;13.30
49861;DHT22;35761;48.826;9.238;2023-04-10T11:53:42;15.30;13.10
49861;DHT22;35761;48.826;9.238;2023-04-10T11:56:19;15.30;12.20
49861;DHT22;35761;48.826;9.238;2023-04-10T11:58:50;15.60;13.10
49861;DHT22;35761;48.826;9.238;2023-04-10T12:01:22;15.70;11.90
49861;DHT22;35761;48.826;9.238;2023-04-10T12:03:53;16.10;10.80
49861;DHT22;35761;48.826;9.238;2023-04-10T12:06:24;16.60;11.40
49861;DHT22;35761;48.826;9.238;2023-04-10T12:08:55;17.10;8.90
49861;DHT22;35761;48.826;9.238;2023-04-10T12:11:28;17.30;10.10
49861;DHT22;35761;48.826;9.238;2023-04-10T12:13:58;17.80;7.50
49861;DHT22;35761;48.826;9.238;2023-04-10T12:16:31;18.10;6.10
49861;DHT22;35761;48.826;9.238;2023-04-10T12:19:02;18.40;6.30
49861;DHT22;35761;48.826;9.238;2023-04-10T12:21:34;18.50;4.70
49861;DHT22;35761;48.826;9.238;2023-04-10T12:24:05;18.50;4.20
49861;DHT22;35761;48.826;9.238;2023-04-10T12:26:46;18.50;4.10
49861;DHT22;35761;48.826;9.238;2023-04-10T12:29:17;18.70;6.00
49861;DHT22;35761;48.826;9.238;2023-04-10T12:31:53;18.80;3.20
49861;DHT22;35761;48.826;9.238;2023-04-10T12:34:24;19.00;3.60
49861;DHT22;35761;48.826;9.238;2023-04-10T12:36:55;19.30;5.20
49861;DHT22;35761;48.826;9.238;2023-04-10T12:39:25;19.40;4.20
49861;DHT22;35761;48.826;9.238;2023-04-10T12:42:15;19.50;4.30
49861;DHT22;35761;48.826;9.238;2023-04-10T12:44:51;19.50;4.00
49861;DHT22;35761;48.826;9.238;2023-04-10T12:47:23;19.50;2.90
49861;DHT22;35761;48.826;9.238;2023-04-10T12:50:06;19.60;4.30
49861;DHT22;35761;48.826;9.238;2023-04-10T12:52:39;19.70;3.90
49861;DHT22;35761;48.826;9.238;2023-04-10T12:55:13;19.80;3.40
49861;DHT22;35761;48.826;9.238;2023-04-10T12:57:47;19.90;5.00
49861;DHT22;35761;48.826;9.238;2023-04-10T13:00:19;19.80;3.50
49861;DHT22;35761;48.826;9.238;2023-04-10T13:02:50;19.80;4.20
49861;DHT22;35761;48.826;9.238;2023-04-10T13:05:21;19.80;4.80
49861;DHT22;35761;48.826;9.238;2023-04-10T13:07:52;19.70;4.20
49861;DHT22;35761;48.826;9.238;2023-04-10T13:10:22;19.50;3.40
49861;DHT22;35761;48.826;9.238;2023-04-10T13:12:56;19.60;4.10
49861;DHT22;35761;48.826;9.238;2023-04-10T13:15:26;19.60;4.00
49861;DHT22;35761;48.826;9.238;2023-04-10T13:18:00;19.60;5.10
49861;DHT22;35761;48.826;9.238;2023-04-10T13:20:33;19.50;4.10
49861;DHT22;35761;48.826;9.238;2023-04-10T13:23:04;19.60;4.30
49861;DHT22;35761;48.826;9.238;2023-04-10T13:25:37;19.70;5.30
49861;DHT22;35761;48.826;9.238;2023-04-10T13:28:11;19.70;5.30
49861;DHT22;35761;48.826;9.238;2023-04-10T13:30:42;19.90;4.10
49861;DHT22;35761;48.826;9.238;2023-04-10T13:33:13;20.00;4.50
49861;DHT22;35761;48.826;9.238;2023-04-10T13:35:43;20.10;4.20
49861;DHT22;35761;48.826;9.238;2023-04-10T13:38:14;20.30;5.00
49861;DHT22;35761;48.826;9.238;2023-04-10T13:40:47;20.30;4.70
49861;DHT22;35761;48.826;9.238;2023-04-10T13:43:20;20.40;5.50
49861;DHT22;35761;48.826;9.238;2023-04-10T13:45:51;20.50;4.90
49861;DHT22;35761;48.826;9.238;2023-04-10T13:48:22;20.40;3.30
49861;DHT22;35761;48.826;9.238;2023-04-10T13:51:06;20.50;3.80
49861;DHT22;35761;48.826;9.238;2023-04-10T13:53:37;20.40;2.80
49861;DHT22;35761;48.826;9.238;2023-04-10T13:56:08;20.50;3.60
49861;DHT22;35761;48.826;9.238;2023-04-10T13:58:42;20.50;4.30
49861;DHT22;35761;48.826;9.238;2023-04-10T14:01:14;20.60;3.80
49861;DHT22;35761;48.826;9.238;2023-04-10T14:03:48;20.40;4.00
49861;DHT22;35761;48.826;9.238;2023-04-10T14:06:19;20.60;4.50
49861;DHT22;35761;48.826;9.238;2023-04-10T14:08:50;20.70;4.70
49861;DHT22;35761;48.826;9.238;2023-04-10T14:11:21;20.70;4.60
49861;DHT22;35761;48.826;9.238;2023-04-10T14:13:54;20.80;4.30
49861;DHT22;35761;48.826;9.238;2023-04-10T14:16:25;20.60;3.20
49861;DHT22;35761;48.826;9.238;2023-04-10T14:18:55;20.40;4.10
49861;DHT22;35761;48.826;9.238;2023-04-10T14:21:26;20.50;3.80
49861;DHT22;35761;48.826;9.238;2023-04-10T14:23:57;20.60;4.30
49861;DHT22;35761;48.826;9.238;2023-04-10T14:26:29;20.70;3.20
49861;DHT22;35761;48.826;9.238;2023-04-10T14:29:02;20.80;4.30
49861;DHT22;35761;48.826;9.238;2023-04-10T14:31:35;20.80;3.60
49861;DHT22;35761;48.826;9.238;2023-04-10T14:34:23;20.80;3.20
49861;DHT22;35761;48.826;9.238;2023-04-10T14:36:53;20.90;3.50
49861;DHT22;35761;48.826;9.238;2023-04-10T14:39:25;20.70;2.90
49861;DHT22;35761;48.826;9.238;2023-04-10T14:41:55;20.60;3.60
49861;DHT22;35761;48.826;9.238;2023-04-10T14:44:30;20.60;3.80
49861;DHT22;35761;48.826;9.238;2023-04-10T14:47:01;20.70;4.50
49861;DHT22;35761;48.826;9.238;2023-04-10T14:49:34;20.80;5.10
49861;DHT22;35761;48.826;9.238;2023-04-10T14:52:04;20.70;3.30
49861;DHT22;35761;48.826;9.238;2023-04-10T14:54:35;20.70;3.60
49861;DHT22;35761;48.826;9.238;2023-04-10T14:57:06;20.90;4.90
49861;DHT22;35761;48.826;9.238;2023-04-10T14:59:39;21.00;3.90
49861;DHT22;35761;48.826;9.238;2023-04-10T15:02:10;21.10;3.80
49861;DHT22;35761;48.826;9.238;2023-04-10T15:04:41;21.20;3.80
49861;DHT22;35761;48.826;9.238;2023-04-10T15:07:12;21.30;4.00
49861;DHT22;35761;48.826;9.238;2023-04-10T15:09:43;21.20;3.00
49861;DHT22;35761;48.826;9.238;2023-04-10T15:12:14;21.10;3.30
49861;DHT22;35761;48.826;9.238;2023-04-10T15:14:50;21.10;3.00
49861;DHT22;35761;48.826;9.238;2023-04-10T15:17:21;21.20;3.70
49861;DHT22;35761;48.826;9.238;2023-04-10T15:19:52;21.10;4.30
49861;DHT22;35761;48.826;9.238;2023-04-10T15:22:22;21.20;4.00
49861;DHT22;35761;48.826;9.238;2023-04-10T15:24:53;21.30;4.00
49861;DHT22;35761;48.826;9.238;2023-04-10T15:27:24;21.50;3.90
49861;DHT22;35761;48.826;9.238;2023-04-10T15:29:57;21.40;4.00
49861;DHT22;35761;48.826;9.238;2023-04-10T15:32:28;21.40;3.30
49861;DHT22;35761;48.826;9.238;2023-04-10T15:34:58;21.50;3.80
49861;DHT22;35761;48.826;9.238;2023-04-10T15:37:28;21.30;3.50
49861;DHT22;35761;48.826;9.238;2023-04-10T15:39:59;21.30;4.20
49861;DHT22;35761;48.826;9.238;2023-04-10T15:42:30;21.30;3.90
49861;DHT22;35761;48.826;9.238;2023-04-10T15:45:05;21.20;3.90
49861;DHT22;35761;48.826;9.238;2023-04-10T15:47:36;21.20;4.10
49861;DHT22;35761;48.826;9.238;2023-04-10T15:50:07;21.10;3.70
49861;DHT22;35761;48.826;9.238;2023-04-10T15:52:37;21.10;4.70
49861;DHT22;35761;48.826;9.238;2023-04-10T15:55:08;21.10;4.60
49861;DHT22;35761;48.826;9.238;2023-04-10T15:57:40;21.00;4.20
49861;DHT22;35761;48.826;9.238;2023-04-10T16:00:14;21.00;4.70
49861;DHT22;35761;48.826;9.238;2023-04-10T16:02:45;20.90;5.10
49861;DHT22;35761;48.826;9.238;2023-04-10T16:05:16;20.90;5.00
49861;DHT22;35761;48.826;9.238;2023-04-10T16:07:46;20.90;5.40
49861;DHT22;35761;48.826;9.238;2023-04-10T16:10:17;20.80;5.30
49861;DHT22;35761;48.826;9.238;2023-04-10T16:12:47;20.80;5.20
49861;DHT22;35761;48.826;9.238;2023-04-10T16:15:20;20.60;5.40
49861;DHT22;35761;48.826;9.238;2023-04-10T16:17:51;20.50;5.60
49861;DHT22;35761;48.826;9.238;2023-04-10T16:20:22;20.40;5.70
49861;DHT22;35761;48.826;9.238;2023-04-10T16:22:52;20.40;5.80
49861;DHT22;35761;48.826;9.238;2023-04-10T16:25:23;20.30;6.00
49861;DHT22;35761;48.826;9.238;2023-04-10T16:27:55;20.20;6.20
49861;DHT22;35761;48.826;9.238;2023-04-10T16:30:28;20.20;6.30
49861;DHT22;35761;48.826;9.238;2023-04-10T16:32:59;20.10;6.60
49861;DHT22;35761;48.826;9.238;2023-04-10T16:35:30;20.10;7.00